CZUM/ZUM METAR and TAF weather

Enter ICAO airport designator
Station Type Date Time Source
CZUM METAR 2019/06/26 22:00 UTC NOAA

CZUM 262200Z AUTO 22008G16KT 150V270 9SM CLR 24/08 A2999 RMK SLP163 DENSITY ALT 2600FT


Station Type Date Time Source
CZUM Decoded METAR 2019/06/26 22:00 UTC NOAA

Churchill Falls, Nfld., Canada (CZUM) 53-33N 064-06W 440M
Jun 26, 2019 - 06:00 PM EDT / 2019.06.26 2200 UTC
Wind: from the SW (220 degrees) at 9 MPH (8 KT) gusting to 18 MPH (16 KT) (direction variable):0
Visibility: 9 mile(s):0
Sky conditions: clear
Temperature: 75 F (24 C)
Dew Point: 46 F (8 C)
Relative Humidity: 35%
Pressure (altimeter): 29.99 in. Hg (1015 hPa)
ob: CZUM 262200Z AUTO 22008G16KT 150V270 9SM CLR 24/08 A2999 RMK SLP163 DENSITY ALT 2600FT
cycle: 22

Station Type Date Time Source
CZUM TAF 2019/06/26 20:42 UTC NOAA

TAF TAF CZUM 261939Z 2620/2708 18008KT P6SM BKN130
FM270100 18008KT P6SM BKN030
TEMPO 2701/2708 P6SM -SHRA OVC020
RMK FCST BASED ON AUTO OBS. NXT FCST BY 270200Z

Example: see airport list